Time;durP1;ratioP1;P1;durP2;ratioP2;P2;SDS_P1;SDS_P2;PMS_P1;PMS_P2;Temp;Humidity;BMP_temperature;BMP_pressure;BME280_temperature;BME280_humidity;BME280_pressure;Samples;Min_cycle;Max_cycle;Signal;HPM_P1;HPM_P2
2022/05/31 00:00:19;;;;;;;;;;;;;;;13.86;100.00;99384.25;1722380;83;20136;-66
2022/05/31 00:02:46;;;;;;;;;;;;;;;13.79;100.00;99388.14;1722404;83;20085;-65
2022/05/31 00:05:13;;;;;;;;;;;;;;;13.74;100.00;99391.92;1722356;83;20153;-65
2022/05/31 00:07:41;;;;;;;;;;;;;;;13.69;100.00;99388.58;1722594;83;20497;-66
2022/05/31 00:10:10;;;;;;;;;;;;;;;13.59;100.00;99382.10;1722349;83;20089;-65
2022/05/31 00:12:36;;;;;;;;;;;;;;;13.49;100.00;99384.70;1722334;83;20125;-65
2022/05/31 00:15:03;;;;;;;;;;;;;;;13.44;100.00;99385.72;1722546;83;20125;-65
2022/05/31 00:17:30;;;;;;;;;;;;;;;13.39;100.00;99386.50;1722533;83;20460;-65
2022/05/31 00:19:57;;;;;;;;;;;;;;;13.29;100.00;99390.48;1722419;83;21217;-64
2022/05/31 00:22:24;;;;;;;;;;;;;;;13.18;100.00;99387.34;1722556;83;20089;-64
2022/05/31 00:24:51;;;;;;;;;;;;;;;13.11;100.00;99387.62;1721865;83;20513;-65
2022/05/31 00:27:20;;;;;;;;;;;;;;;13.04;100.00;99390.91;1709648;82;20112;-65
2022/05/31 00:29:47;;;;;;;;;;;;;;;12.96;100.00;99390.97;1691993;85;20115;-65
2022/05/31 00:32:18;;;;;;;;;;;;;;;12.88;100.00;99392.64;1691986;85;20111;-65
2022/05/31 00:34:46;;;;;;;;;;;;;;;12.80;100.00;99383.87;1692000;85;20136;-64
2022/05/31 00:37:13;;;;;;;;;;;;;;;12.74;100.00;99385.20;1692097;85;20446;-65
2022/05/31 00:39:41;;;;;;;;;;;;;;;12.68;100.00;99389.31;1691922;85;20682;-65
2022/05/31 00:42:09;;;;;;;;;;;;;;;12.64;100.00;99393.88;1691955;85;20099;-64
2022/05/31 00:44:37;;;;;;;;;;;;;;;12.62;100.00;99391.45;1691965;85;21150;-64
2022/05/31 00:47:28;;;;;;;;;;;;;;;12.62;100.00;99393.41;1696726;83;20115;-65
2022/05/31 00:50:01;;;;;;;;;;;;;;;12.63;100.00;99394.45;1693875;84;20115;-64
2022/05/31 00:52:34;;;;;;;;;;;;;;;12.65;100.00;99389.98;1693520;84;20623;-65
2022/05/31 00:55:09;;;;;;;;;;;;;;;12.66;100.00;99399.29;1693180;85;20095;-65
2022/05/31 00:57:38;;;;;;;;;;;;;;;12.66;100.00;99398.48;1664227;86;21144;-65
2022/05/31 01:00:09;;;;;;;;;;;;;;;12.66;100.00;99398.48;1668660;86;20116;-65
2022/05/31 01:02:37;;;;;;;;;;;;;;;12.65;100.00;99394.12;1668816;86;20431;-64
2022/05/31 01:05:05;;;;;;;;;;;;;;;12.62;100.00;99401.66;1668840;86;20076;-64
2022/05/31 01:07:32;;;;;;;;;;;;;;;12.58;100.00;99400.14;1669014;86;20127;-65
2022/05/31 01:09:59;;;;;;;;;;;;;;;12.53;100.00;99402.52;1668972;86;20490;-65
2022/05/31 01:12:45;;;;;;;;;;;;;;;12.51;100.00;99395.73;1668784;86;20186;-65
2022/05/31 01:15:19;;;;;;;;;;;;;;;12.48;100.00;99393.64;1646594;86;20227;-65
2022/05/31 01:18:05;;;;;;;;;;;;;;;12.46;100.00;99389.84;1668796;85;20939;-67
2022/05/31 01:20:50;;;;;;;;;;;;;;;12.44;100.00;99392.12;1668805;86;20127;-66
2022/05/31 01:23:18;;;;;;;;;;;;;;;12.41;100.00;99394.72;1668619;85;21191;-67
2022/05/31 01:26:08;;;;;;;;;;;;;;;12.38;100.00;99387.12;1668786;86;20447;-66
2022/05/31 01:28:38;;;;;;;;;;;;;;;12.37;100.00;99386.89;1668755;85;20100;-66
2022/05/31 01:31:15;;;;;;;;;;;;;;;12.33;100.00;99388.12;1668839;86;20115;-66
2022/05/31 01:33:45;;;;;;;;;;;;;;;12.32;100.00;99383.75;1668508;85;20103;-66
2022/05/31 01:36:15;;;;;;;;;;;;;;;12.31;100.00;99379.38;1662540;85;21169;-66
2022/05/31 01:39:04;;;;;;;;;;;;;;;12.31;100.00;99386.84;1668812;86;20432;-66
2022/05/31 01:41:38;;;;;;;;;;;;;;;12.30;100.00;99387.41;1669001;85;32595;-66
2022/05/31 01:44:08;;;;;;;;;;;;;;;12.29;100.00;99391.30;1668767;86;20088;-66
2022/05/31 01:46:35;;;;;;;;;;;;;;;12.31;100.00;99390.39;1668871;84;20123;-65
2022/05/31 01:49:07;;;;;;;;;;;;;;;12.36;100.00;99390.21;1668868;85;21274;-65
2022/05/31 01:51:40;;;;;;;;;;;;;;;12.41;100.00;99389.22;1668717;86;20446;-65
2022/05/31 01:54:08;;;;;;;;;;;;;;;12.47;100.00;99390.64;1669087;86;20091;-66
2022/05/31 01:56:36;;;;;;;;;;;;;;;12.62;100.00;99386.52;1668751;86;20116;-64
2022/05/31 01:59:05;;;;;;;;;;;;;;;12.79;100.00;99385.01;1672408;85;20103;-64
2022/05/31 02:01:33;;;;;;;;;;;;;;;12.91;100.00;99386.47;1673768;86;21172;-64
2022/05/31 02:03:59;;;;;;;;;;;;;;;13.01;100.00;99392.16;1673881;86;20151;-64
2022/05/31 02:06:32;;;;;;;;;;;;;;;13.09;100.00;99397.60;1673964;85;20087;-64
2022/05/31 02:09:00;;;;;;;;;;;;;;;13.18;100.00;99398.37;1672986;86;20114;-64
2022/05/31 02:11:28;;;;;;;;;;;;;;;13.28;100.00;99404.63;1673961;85;20103;-64
2022/05/31 02:13:58;;;;;;;;;;;;;;;13.30;100.00;99413.34;1673794;85;21200;-64
2022/05/31 02:16:27;;;;;;;;;;;;;;;13.33;100.00;99420.94;1673759;86;20088;-64
2022/05/31 02:19:25;;;;;;;;;;;;;;;13.31;100.00;99419.89;1673784;86;20123;-68
2022/05/31 02:21:57;;;;;;;;;;;;;;;13.27;100.00;99422.31;1673350;85;20160;-64
2022/05/31 02:24:25;;;;;;;;;;;;;;;13.21;100.00;99422.52;1673826;85;20123;-63
2022/05/31 02:26:52;;;;;;;;;;;;;;;13.17;100.00;99424.33;1647293;86;21175;-64
2022/05/31 02:29:21;;;;;;;;;;;;;;;13.12;100.00;99420.92;1677728;84;20151;-63
2022/05/31 02:31:47;;;;;;;;;;;;;;;13.11;100.00;99418.74;1683045;84;20085;-63
2022/05/31 02:34:17;;;;;;;;;;;;;;;13.10;100.00;99419.89;1702130;83;20151;-64
2022/05/31 02:36:43;;;;;;;;;;;;;;;13.07;100.00;99423.31;1702406;84;20105;-64
2022/05/31 02:39:11;;;;;;;;;;;;;;;13.07;100.00;99423.88;1702124;83;21164;-64
2022/05/31 02:41:39;;;;;;;;;;;;;;;13.10;100.00;99420.45;1702111;83;20160;-64
2022/05/31 02:44:06;;;;;;;;;;;;;;;13.11;100.00;99418.74;1702017;84;20130;-65
2022/05/31 02:46:34;;;;;;;;;;;;;;;13.16;100.00;99422.70;1702080;83;20130;-64
2022/05/31 02:49:02;;;;;;;;;;;;;;;13.21;100.00;99421.13;1702035;83;20089;-63
2022/05/31 02:51:28;;;;;;;;;;;;;;;13.29;100.00;99419.42;1684250;84;21160;-64
2022/05/31 02:53:56;;;;;;;;;;;;;;;13.35;100.00;99413.13;1702157;83;20421;-64
2022/05/31 02:56:25;;;;;;;;;;;;;;;13.41;100.00;99411.78;1700979;84;20456;-64
2022/05/31 02:59:09;;;;;;;;;;;;;;;13.47;100.00;99415.38;1698755;83;20117;-64
2022/05/31 03:01:44;;;;;;;;;;;;;;;13.55;100.00;99415.88;1667731;84;20452;-65
2022/05/31 03:04:29;;;;;;;;;;;;;;;13.64;100.00;99419.13;1693877;84;21164;-66
2022/05/31 03:07:03;;;;;;;;;;;;;;;13.73;100.00;99428.94;1678624;85;20485;-65
2022/05/31 03:09:33;;;;;;;;;;;;;;;13.85;100.00;99433.12;1692085;85;20138;-65
2022/05/31 03:12:06;;;;;;;;;;;;;;;13.93;100.00;99436.09;1692127;85;20116;-65
2022/05/31 03:14:49;;;;;;;;;;;;;;;14.00;100.00;99443.25;1692010;85;20147;-65
2022/05/31 03:17:19;;;;;;;;;;;;;;;14.10;100.00;99445.00;1692521;85;21131;-65
2022/05/31 03:19:56;;;;;;;;;;;;;;;14.17;100.00;99444.45;1679531;84;20116;-67
2022/05/31 03:22:25;;;;;;;;;;;;;;;14.20;100.00;99439.05;1692358;84;20155;-65
2022/05/31 03:24:58;;;;;;;;;;;;;;;14.26;100.00;99449.30;1668360;86;20124;-65
2022/05/31 03:27:25;;;;;;;;;;;;;;;14.31;100.00;99448.27;1668329;85;20099;-65
2022/05/31 03:29:53;;;;;;;;;;;;;;;14.37;100.00;99443.56;1668447;85;20840;-65
2022/05/31 03:32:20;;;;;;;;;;;;;;;14.42;100.00;99437.85;1668359;85;20127;-65
2022/05/31 03:34:47;;;;;;;;;;;;;;;14.47;100.00;99437.59;1668128;86;20088;-65
2022/05/31 03:37:13;;;;;;;;;;;;;;;14.51;100.00;99437.14;1668346;86;20146;-65
2022/05/31 03:39:40;;;;;;;;;;;;;;;14.58;100.00;99442.09;1668427;86;20132;-65
2022/05/31 03:42:07;;;;;;;;;;;;;;;14.70;100.00;99450.38;1668156;86;21814;-64
2022/05/31 03:44:34;;;;;;;;;;;;;;;14.83;100.00;99445.66;1668316;85;20120;-65
2022/05/31 03:47:08;;;;;;;;;;;;;;;14.96;100.00;99450.61;1668074;86;20103;-65
2022/05/31 03:49:52;;;;;;;;;;;;;;;15.04;100.00;99450.45;1667055;85;20123;-64
2022/05/31 03:52:18;;;;;;;;;;;;;;;15.15;100.00;99455.73;1668328;86;20151;-64
2022/05/31 03:54:45;;;;;;;;;;;;;;;15.18;100.00;99447.33;1668340;86;22110;-64
2022/05/31 03:57:16;;;;;;;;;;;;;;;15.20;100.00;99450.55;1681740;84;20432;-65
2022/05/31 03:59:44;;;;;;;;;;;;;;;15.23;100.00;99453.20;1682741;83;20076;-65
2022/05/31 04:02:11;;;;;;;;;;;;;;;15.27;100.00;99456.88;1680829;84;20595;-65
2022/05/31 04:04:38;;;;;;;;;;;;;;;15.30;100.00;99461.70;1696483;84;20436;-65
2022/05/31 04:07:05;;;;;;;;;;;;;;;15.31;100.00;99466.89;1696555;84;21108;-65
2022/05/31 04:09:32;;;;;;;;;;;;;;;15.32;100.00;99471.84;1696525;84;20117;-66
2022/05/31 04:11:59;;;;;;;;;;;;;;;15.32;100.00;99474.03;1696465;84;20456;-65
2022/05/31 04:14:47;;;;;;;;;;;;;;;15.32;100.00;99477.38;1643409;86;20424;-65
2022/05/31 04:17:13;;;;;;;;;;;;;;;15.29;100.00;99487.17;1621060;88;20109;-66
2022/05/31 04:19:40;;;;;;;;;;;;;;;15.23;100.00;99491.91;1661955;84;22270;-65
2022/05/31 04:22:07;;;;;;;;;;;;;;;15.15;100.00;99496.41;1696471;84;20073;-67
2022/05/31 04:24:33;;;;;;;;;;;;;;;15.08;100.00;99499.75;1696512;84;20113;-65
2022/05/31 04:27:21;;;;;;;;;;;;;;;15.06;100.00;99504.02;1682667;84;20108;-65
2022/05/31 04:29:49;;;;;;;;;;;;;;;15.00;100.00;99504.05;1654522;86;20169;-65
2022/05/31 04:32:35;;;;;;;;;;;;;;;14.98;100.00;99506.35;1689124;84;21167;-66
2022/05/31 04:35:04;;;;;;;;;;;;;;;14.95;100.00;99507.84;1707194;84;20484;-67
2022/05/31 04:37:30;;;;;;;;;;;;;;;14.93;100.00;99507.97;1707468;84;20178;-65
2022/05/31 04:40:00;;;;;;;;;;;;;;;14.92;100.00;99510.50;1689888;84;20121;-66
2022/05/31 04:42:32;;;;;;;;;;;;;;;14.91;100.00;99508.88;1698741;84;20443;-65
2022/05/31 04:44:58;;;;;;;;;;;;;;;14.89;100.00;99516.14;1688729;84;21160;-65
2022/05/31 04:47:25;;;;;;;;;;;;;;;14.89;100.00;99516.14;1707488;84;20122;-65
2022/05/31 04:49:55;;;;;;;;;;;;;;;14.90;100.00;99523.28;1699883;84;20117;-66
2022/05/31 04:52:21;;;;;;;;;;;;;;;14.91;100.00;99509.69;1682032;84;20093;-65
2022/05/31 04:54:49;;;;;;;;;;;;;;;14.95;100.00;99516.72;1679131;85;20136;-65
2022/05/31 04:57:18;;;;;;;;;;;;;;;14.98;100.00;99514.06;1682561;84;21175;-65
2022/05/31 04:59:45;;;;;;;;;;;;;;;15.03;100.00;99506.09;1680323;84;20127;-65
2022/05/31 05:02:12;;;;;;;;;;;;;;;15.08;100.00;99503.09;1692148;85;20126;-64
2022/05/31 05:04:53;;;;;;;;;;;;;;;15.11;100.00;99501.83;1676106;85;20129;-66
2022/05/31 05:07:23;;;;;;;;;;;;;;;15.15;100.00;99509.66;1663228;86;20145;-66
2022/05/31 05:09:50;;;;;;;;;;;;;;;15.20;100.00;99512.19;1671844;85;21130;-70
2022/05/31 05:12:25;;;;;;;;;;;;;;;15.25;100.00;99518.64;1669891;85;20131;-69
2022/05/31 05:14:53;;;;;;;;;;;;;;;15.27;100.00;99519.09;1692215;84;20106;-68
2022/05/31 05:17:23;;;;;;;;;;;;;;;15.25;100.00;99518.64;1692621;85;20122;-68
2022/05/31 05:19:50;;;;;;;;;;;;;;;15.26;100.00;99527.16;1669353;85;20507;-68
2022/05/31 05:22:17;;;;;;;;;;;;;;;15.26;100.00;99518.86;1664641;86;21154;-68
2022/05/31 05:24:43;;;;;;;;;;;;;;;15.27;100.00;99522.67;1664536;86;20121;-67
2022/05/31 05:27:30;;;;;;;;;;;;;;;15.29;100.00;99530.62;1659571;85;20178;-68
2022/05/31 05:32:55;;;;;;;;;;;;;;;15.32;100.00;99529.92;1682589;85;20131;-66
2022/05/31 05:35:24;;;;;;;;;;;;;;;15.34;100.00;99533.15;1692215;84;21804;-66
2022/05/31 05:37:52;;;;;;;;;;;;;;;15.36;100.00;99537.76;1664706;86;20105;-66
2022/05/31 05:40:21;;;;;;;;;;;;;;;15.40;100.00;99531.76;1664766;86;20134;-66
2022/05/31 05:42:49;;;;;;;;;;;;;;;15.43;100.00;99544.89;1665194;86;20182;-68
2022/05/31 05:45:18;;;;;;;;;;;;;;;15.41;100.00;99550.77;1671316;85;20162;-66
2022/05/31 05:47:45;;;;;;;;;;;;;;;15.39;100.00;99560.57;1668936;85;21206;-66
2022/05/31 05:50:12;;;;;;;;;;;;;;;15.35;100.00;99568.75;1667259;85;20401;-66
2022/05/31 05:53:00;;;;;;;;;;;;;;;15.33;100.00;99578.55;1686288;85;20121;-67
2022/05/31 05:55:44;;;;;;;;;;;;;;;15.30;100.00;99588.92;1667803;85;20103;-67
2022/05/31 05:58:29;;;;;;;;;;;;;;;15.28;100.00;99596.19;1681396;85;20140;-66
2022/05/31 06:01:18;;;;;;;;;;;;;;;15.26;100.00;99606.78;1712255;83;21218;-68
2022/05/31 06:03:58;;;;;;;;;;;;;;;15.25;100.00;99605.17;1699699;83;20154;-71
2022/05/31 06:06:25;;;;;;;;;;;;;;;15.25;100.00;99602.41;1692951;83;20164;-69
2022/05/31 06:08:55;;;;;;;;;;;;;;;15.24;100.00;99604.94;1688892;83;20682;-67
2022/05/31 06:11:25;;;;;;;;;;;;;;;15.24;100.00;99606.90;1688894;85;20124;-67
2022/05/31 06:14:11;;;;;;;;;;;;;;;15.24;100.00;99604.13;1688758;85;21151;-68
2022/05/31 06:16:40;;;;;;;;;;;;;;;15.23;100.00;99606.09;1688726;85;20451;-67
2022/05/31 06:19:16;;;;;;;;;;;;;;;15.25;100.00;99607.13;1688808;85;20128;-66
2022/05/31 06:21:43;;;;;;;;;;;;;;;15.27;100.00;99611.16;1688620;85;20141;-66
2022/05/31 06:24:18;;;;;;;;;;;;;;;15.27;100.00;99607.02;1686854;84;20509;-66
2022/05/31 06:26:45;;;;;;;;;;;;;;;15.28;100.00;99610.59;1688962;85;20695;-66
2022/05/31 06:29:11;;;;;;;;;;;;;;;15.26;100.00;99612.31;1688766;85;20128;-66
2022/05/31 06:31:38;;;;;;;;;;;;;;;15.25;100.00;99618.19;1688771;85;20120;-65
2022/05/31 06:34:07;;;;;;;;;;;;;;;15.23;100.00;99623.26;1687849;84;20122;-66
2022/05/31 06:36:39;;;;;;;;;;;;;;;15.22;100.00;99618.30;1685515;85;20124;-65
2022/05/31 06:39:07;;;;;;;;;;;;;;;15.23;100.00;99623.26;1687545;85;21077;-66
2022/05/31 06:41:34;;;;;;;;;;;;;;;15.24;100.00;99621.53;1647480;85;20116;-66
2022/05/31 06:44:11;;;;;;;;;;;;;;;15.22;100.00;99624.41;1664065;85;20140;-63
2022/05/31 06:46:57;;;;;;;;;;;;;;;15.19;100.00;99632.25;1688801;85;20124;-64
2022/05/31 06:49:42;;;;;;;;;;;;;;;15.20;100.00;99632.47;1688802;85;20148;-64
2022/05/31 06:58:10;;;;;;;;;;;;;;;15.27;100.00;99629.14;1688742;85;20112;-68
2022/05/31 07:00:38;;;;;;;;;;;;;;;15.36;100.00;99627.07;1691762;84;20127;-68
2022/05/31 07:03:05;;;;;;;;;;;;;;;15.44;100.00;99636.41;1701721;83;20458;-67
2022/05/31 07:05:33;;;;;;;;;;;;;;;15.53;100.00;99637.91;1671434;84;21358;-66
2022/05/31 07:08:00;;;;;;;;;;;;;;;15.61;100.00;99645.05;1701344;83;20471;-65
2022/05/31 07:10:45;;;;;;;;;;;;;;;15.69;99.34;99657.39;1701609;84;20478;-65
2022/05/31 07:13:31;;;;;;;;;;;;;;;15.79;99.52;99661.08;1704482;83;20127;-66
2022/05/31 07:16:16;;;;;;;;;;;;;;;15.90;97.81;99653.11;1724141;83;20149;-67
2022/05/31 07:19:01;;;;;;;;;;;;;;;15.96;97.55;99661.41;1729969;83;22097;-67
2022/05/31 07:21:30;;;;;;;;;;;;;;;15.98;94.91;99652.75;1729759;83;20184;-64
2022/05/31 07:23:57;;;;;;;;;;;;;;;15.95;95.33;99650.67;1730548;83;20117;-67
2022/05/31 07:26:25;;;;;;;;;;;;;;;15.91;95.57;99663.02;1703767;83;20193;-67
2022/05/31 07:28:53;;;;;;;;;;;;;;;15.88;95.54;99654.61;1730523;83;20125;-67
2022/05/31 07:31:21;;;;;;;;;;;;;;;15.79;94.96;99673.53;1728034;83;21244;-65
2022/05/31 07:33:49;;;;;;;;;;;;;;;15.67;95.15;99672.73;1729070;83;20312;-67
2022/05/31 07:36:18;;;;;;;;;;;;;;;15.59;96.04;99686.94;1730531;83;20180;-65
2022/05/31 07:38:46;;;;;;;;;;;;;;;15.52;95.80;99692.20;1727704;83;20112;-67
2022/05/31 07:41:13;;;;;;;;;;;;;;;15.42;96.41;99688.51;1730646;83;20113;-67
2022/05/31 07:43:40;;;;;;;;;;;;;;;15.35;97.84;99688.27;1730788;83;21175;-67
2022/05/31 07:46:10;;;;;;;;;;;;;;;15.28;98.55;99685.26;1703743;83;20192;-64
2022/05/31 07:48:38;;;;;;;;;;;;;;;15.14;99.00;99694.68;1730476;83;20276;-67
2022/05/31 07:51:06;;;;;;;;;;;;;;;15.03;99.93;99699.03;1727491;83;20483;-65
2022/05/31 07:53:52;;;;;;;;;;;;;;;14.95;100.00;99697.77;1730659;83;20512;-65
2022/05/31 07:56:37;;;;;;;;;;;;;;;14.85;100.00;99705.34;1730530;83;21256;-66
2022/05/31 07:59:18;;;;;;;;;;;;;;;14.77;100.00;99715.09;1730236;83;20129;-65
2022/05/31 08:01:47;;;;;;;;;;;;;;;14.67;100.00;99731.52;1726540;83;20129;-65
2022/05/31 08:04:16;;;;;;;;;;;;;;;14.54;100.00;99744.45;1728505;83;20244;-64
2022/05/31 08:06:43;;;;;;;;;;;;;;;14.45;100.00;99745.09;1730589;83;20475;-65
2022/05/31 08:09:09;;;;;;;;;;;;;;;14.38;100.00;99748.16;1730616;83;21103;-65
2022/05/31 08:11:37;;;;;;;;;;;;;;;14.31;100.00;99743.16;1730472;83;20168;-65
2022/05/31 08:14:04;;;;;;;;;;;;;;;14.27;100.00;99749.69;1730533;83;20145;-65
2022/05/31 08:16:31;;;;;;;;;;;;;;;14.19;100.00;99755.50;1730883;83;20444;-64
2022/05/31 08:18:57;;;;;;;;;;;;;;;14.13;100.00;99745.80;1730905;83;20149;-66
2022/05/31 08:21:30;;;;;;;;;;;;;;;14.07;100.00;99740.23;1730094;83;21136;-65
2022/05/31 08:24:02;;;;;;;;;;;;;;;14.05;100.00;99756.31;1729607;83;20149;-65
2022/05/31 08:26:28;;;;;;;;;;;;;;;13.99;100.00;99764.55;1728971;83;20169;-67
2022/05/31 08:28:55;;;;;;;;;;;;;;;13.94;100.00;99759.22;1728111;83;20216;-67
2022/05/31 08:31:24;;;;;;;;;;;;;;;13.92;100.00;99749.89;1728941;83;20129;-67
2022/05/31 08:33:51;;;;;;;;;;;;;;;13.90;100.00;99735.62;1702165;83;22008;-67
2022/05/31 08:36:18;;;;;;;;;;;;;;;13.93;100.00;99734.14;1728066;83;20493;-65
2022/05/31 08:38:44;;;;;;;;;;;;;;;13.93;100.00;99730.81;1751172;81;20969;-65
2022/05/31 08:41:27;;;;;;;;;;;;;;;13.93;100.00;99734.14;1760634;81;20465;-64
2022/05/31 08:44:06;;;;;;;;;;;;;;;13.92;100.00;99740.23;1760838;81;20143;-64
2022/05/31 08:47:03;;;;;;;;;;;;;;;13.88;100.00;99727.67;1760878;81;21151;-64
2022/05/31 08:52:27;;;;;;;;;;;;;;;13.83;100.00;99727.89;1760924;81;20101;-64
2022/05/31 08:57:49;;;;;;;;;;;;;;;13.74;100.00;99718.04;1758506;81;20457;-64
2022/05/31 09:00:21;;;;;;;;;;;;;;;13.65;100.00;99708.99;1751571;82;21169;-64
2022/05/31 09:02:54;;;;;;;;;;;;;;;13.58;100.00;99708.12;1746365;82;20116;-64
2022/05/31 09:05:32;;;;;;;;;;;;;;;13.52;100.00;99703.37;1746334;82;20158;-64
2022/05/31 09:08:09;;;;;;;;;;;;;;;13.48;100.00;99712.64;1746423;82;20133;-65
2022/05/31 09:10:51;;;;;;;;;;;;;;;13.47;100.00;99724.80;1746123;82;20095;-65
2022/05/31 09:13:25;;;;;;;;;;;;;;;13.55;100.00;99732.23;1746307;82;21095;-65
2022/05/31 09:16:17;;;;;;;;;;;;;;;13.68;100.00;99728.45;1746341;82;20094;-65
2022/05/31 09:18:51;;;;;;;;;;;;;;;13.81;100.00;99716.95;1746452;82;20094;-65
2022/05/31 09:21:24;;;;;;;;;;;;;;;13.95;100.00;99691.84;1733533;82;20193;-65
2022/05/31 09:23:52;;;;;;;;;;;;;;;14.13;100.00;99679.55;1713728;83;20146;-65
2022/05/31 09:26:40;;;;;;;;;;;;;;;14.38;100.00;99685.44;1711469;84;21139;-64
2022/05/31 09:29:21;;;;;;;;;;;;;;;14.67;100.00;99680.40;1711688;84;20105;-65
2022/05/31 09:32:12;;;;;;;;;;;;;;;15.03;100.00;99683.83;1711538;84;20442;-64
2022/05/31 09:34:55;;;;;;;;;;;;;;;15.49;100.00;99678.48;1711373;83;20763;-65
2022/05/31 09:37:43;;;;;;;;;;;;;;;15.99;100.00;99672.36;1710915;83;20141;-64
2022/05/31 09:40:33;;;;;;;;;;;;;;;16.31;100.00;99675.49;1711474;84;21160;-65
2022/05/31 09:43:03;;;;;;;;;;;;;;;16.51;100.00;99673.70;1711425;84;20181;-64
2022/05/31 09:45:34;;;;;;;;;;;;;;;16.68;100.00;99692.03;1711845;83;20130;-65
2022/05/31 09:48:01;;;;;;;;;;;;;;;16.81;100.00;99701.88;1709860;84;20165;-64
2022/05/31 09:50:28;;;;;;;;;;;;;;;16.86;100.00;99709.94;1710881;83;20122;-65
2022/05/31 09:52:58;;;;;;;;;;;;;;;16.84;100.00;99716.42;1700008;83;21172;-64
2022/05/31 09:58:42;;;;;;;;;;;;;;;16.77;99.09;99721.77;1701450;83;20443;-65
2022/05/31 10:01:30;;;;;;;;;;;;;;;16.65;99.21;99720.45;1600483;89;20224;-66
2022/05/31 10:04:09;;;;;;;;;;;;;;;16.57;97.87;99718.59;1592669;89;20125;-64
2022/05/31 10:06:38;;;;;;;;;;;;;;;16.48;95.55;99722.31;1630264;85;21233;-64
2022/05/31 10:09:15;;;;;;;;;;;;;;;16.35;92.57;99714.38;1675211;85;20142;-66
2022/05/31 10:11:45;;;;;;;;;;;;;;;16.26;94.46;99711.74;1692599;85;20131;-66
2022/05/31 10:14:26;;;;;;;;;;;;;;;16.32;94.99;99714.50;1692385;83;20115;-66
2022/05/31 10:16:54;;;;;;;;;;;;;;;16.47;96.60;99719.31;1692608;84;20493;-67
2022/05/31 10:19:26;;;;;;;;;;;;;;;16.77;96.20;99723.95;1674650;85;21152;-67
2022/05/31 10:21:52;;;;;;;;;;;;;;;17.05;95.26;99720.37;1691822;84;20461;-64
2022/05/31 10:24:25;;;;;;;;;;;;;;;17.32;94.19;99725.07;1689205;84;20130;-65
2022/05/31 10:27:16;;;;;;;;;;;;;;;17.65;92.72;99719.73;1692159;84;20186;-67
2022/05/31 10:29:59;;;;;;;;;;;;;;;17.99;91.65;99725.13;1692136;84;20147;-67
2022/05/31 10:33:06;;;;;;;;;;;;;;;18.26;89.92;99733.91;1667578;85;21190;-67
2022/05/31 10:35:43;;;;;;;;;;;;;;;18.47;87.56;99735.77;1692523;85;20155;-68
2022/05/31 10:38:19;;;;;;;;;;;;;;;18.62;85.07;99737.47;1674864;85;20178;-68
2022/05/31 10:40:52;;;;;;;;;;;;;;;18.78;81.00;99742.39;1692499;85;20133;-67
2022/05/31 10:43:36;;;;;;;;;;;;;;;18.83;80.04;99734.34;1692570;84;20122;-68
2022/05/31 10:46:10;;;;;;;;;;;;;;;18.89;79.91;99733.67;1675225;85;21131;-68
2022/05/31 10:48:40;;;;;;;;;;;;;;;19.16;78.14;99736.55;1692539;84;20103;-68
2022/05/31 10:51:11;;;;;;;;;;;;;;;19.40;76.60;99734.83;1692117;85;20480;-68
2022/05/31 10:53:46;;;;;;;;;;;;;;;19.53;74.05;99730.72;1692484;84;20147;-69
2022/05/31 10:56:28;;;;;;;;;;;;;;;19.54;74.11;99734.31;1692309;84;20509;-67
2022/05/31 10:59:00;;;;;;;;;;;;;;;19.50;73.13;99731.43;1671415;84;21291;-67
2022/05/31 11:02:00;;;;;;;;;;;;;;;19.50;72.95;99731.43;1693995;83;20239;-67
2022/05/31 11:04:51;;;;;;;;;;;;;;;19.48;69.88;99735.17;1706011;84;20210;-67
2022/05/31 11:07:21;;;;;;;;;;;;;;;19.44;71.90;99731.52;1704976;84;20106;-67
2022/05/31 11:13:19;;;;;;;;;;;;;;;19.62;71.61;99731.28;1707227;83;21422;-68
2022/05/31 11:15:59;;;;;;;;;;;;;;;19.61;70.76;99727.47;1707296;84;20114;-67
2022/05/31 11:18:44;;;;;;;;;;;;;;;19.58;71.97;99726.82;1737008;82;20096;-67
2022/05/31 11:21:39;;;;;;;;;;;;;;;19.64;71.91;99723.94;1693276;83;20142;-66
2022/05/31 11:24:24;;;;;;;;;;;;;;;19.75;71.64;99718.73;1723443;82;20087;-67
2022/05/31 11:27:16;;;;;;;;;;;;;;;20.17;72.23;99723.97;1751661;81;21160;-67
2022/05/31 11:29:52;;;;;;;;;;;;;;;20.65;70.01;99732.02;1752220;82;20095;-66
2022/05/31 11:32:45;;;;;;;;;;;;;;;20.88;69.60;99729.89;1751947;81;20413;-66
2022/05/31 11:35:21;;;;;;;;;;;;;;;21.09;68.18;99721.77;1735823;82;20102;-66
2022/05/31 11:38:03;;;;;;;;;;;;;;;21.39;67.27;99730.66;1752226;81;20134;-67
2022/05/31 11:40:49;;;;;;;;;;;;;;;21.57;66.23;99733.03;1752104;82;21151;-67
2022/05/31 11:43:25;;;;;;;;;;;;;;;21.71;64.86;99728.97;1751828;82;20086;-67
2022/05/31 11:46:16;;;;;;;;;;;;;;;21.72;65.49;99718.00;1751964;81;20099;-69
2022/05/31 11:48:50;;;;;;;;;;;;;;;21.65;65.50;99724.12;1752084;82;20143;-67
2022/05/31 11:51:33;;;;;;;;;;;;;;;21.57;68.02;99721.86;1752123;81;20110;-68
2022/05/31 11:54:20;;;;;;;;;;;;;;;21.78;65.10;99722.64;1752087;82;21880;-68
2022/05/31 11:57:17;;;;;;;;;;;;;;;21.95;65.83;99728.94;1752240;81;20102;-68
2022/05/31 11:59:49;;;;;;;;;;;;;;;22.16;65.55;99729.72;1752090;81;20106;-66
2022/05/31 12:02:19;;;;;;;;;;;;;;;22.37;63.73;99717.27;1751943;81;20158;-66
2022/05/31 12:04:50;;;;;;;;;;;;;;;22.40;63.59;99723.48;1752026;82;20111;-67
2022/05/31 12:07:20;;;;;;;;;;;;;;;22.43;62.65;99730.88;1750973;82;21852;-67
2022/05/31 12:09:56;;;;;;;;;;;;;;;22.51;64.25;99733.93;1752163;82;20086;-66
2022/05/31 12:12:33;;;;;;;;;;;;;;;22.65;62.22;99733.97;1752132;81;20114;-67
2022/05/31 12:15:03;;;;;;;;;;;;;;;22.74;60.81;99731.63;1752051;82;20703;-67
2022/05/31 12:17:33;;;;;;;;;;;;;;;22.71;60.49;99731.00;1752445;82;20110;-66
2022/05/31 12:20:03;;;;;;;;;;;;;;;22.73;60.35;99732.81;1752272;82;21131;-66
2022/05/31 12:22:39;;;;;;;;;;;;;;;22.71;62.19;99732.41;1752318;82;20111;-66
2022/05/31 12:25:11;;;;;;;;;;;;;;;22.67;62.85;99728.79;1752071;81;20095;-68
2022/05/31 12:27:40;;;;;;;;;;;;;;;22.73;61.93;99726.63;1751946;81;20118;-66
2022/05/31 12:30:23;;;;;;;;;;;;;;;22.85;63.11;99731.10;1752113;82;20110;-67
2022/05/31 12:32:52;;;;;;;;;;;;;;;22.81;61.62;99724.69;1752532;81;21220;-67
2022/05/31 12:35:34;;;;;;;;;;;;;;;22.83;62.58;99725.69;1752008;82;20095;-66
2022/05/31 12:38:08;;;;;;;;;;;;;;;23.03;61.01;99722.77;1750070;82;20434;-70
2022/05/31 12:40:38;;;;;;;;;;;;;;;23.28;61.00;99723.61;1752170;81;21108;-67
2022/05/31 12:43:15;;;;;;;;;;;;;;;23.29;59.96;99720.21;1733462;81;20125;-67
2022/05/31 12:45:44;;;;;;;;;;;;;;;23.31;59.77;99713.61;1691190;84;21150;-67
2022/05/31 12:48:25;;;;;;;;;;;;;;;23.39;58.64;99712.42;1692689;82;20134;-68
2022/05/31 12:51:00;;;;;;;;;;;;;;;23.45;58.89;99716.44;1707121;84;20138;-66
2022/05/31 12:53:40;;;;;;;;;;;;;;;23.70;58.52;99712.26;1707064;84;20637;-68
2022/05/31 12:56:10;;;;;;;;;;;;;;;24.00;57.31;99710.45;1707118;84;20147;-68
2022/05/31 12:58:41;;;;;;;;;;;;;;;24.17;56.61;99711.03;1707096;84;22031;-68
2022/05/31 13:01:15;;;;;;;;;;;;;;;24.29;55.48;99709.20;1706624;84;20173;-68
2022/05/31 13:03:54;;;;;;;;;;;;;;;24.06;55.50;99710.24;1695093;83;20143;-68
2022/05/31 13:06:37;;;;;;;;;;;;;;;23.96;56.11;99709.05;1652124;85;20485;-68
2022/05/31 13:09:08;;;;;;;;;;;;;;;23.97;55.87;99705.05;1692715;85;20135;-68
2022/05/31 13:19:49;;;;;;;;;;;;;;;24.33;55.27;99687.55;1644712;84;20199;-68
2022/05/31 13:22:17;;;;;;;;;;;;;;;24.27;56.24;99691.98;1692282;85;20138;-68
2022/05/31 13:24:53;;;;;;;;;;;;;;;24.43;55.49;99683.72;1692645;85;21682;-68
2022/05/31 13:27:22;;;;;;;;;;;;;;;24.58;55.54;99686.67;1688185;84;20122;-68
2022/05/31 13:30:11;;;;;;;;;;;;;;;24.79;54.10;99685.79;1674333;85;20146;-67
2022/05/31 13:32:39;;;;;;;;;;;;;;;24.97;53.62;99678.08;1692595;85;20155;-68
2022/05/31 13:35:09;;;;;;;;;;;;;;;25.14;53.96;99680.59;1692616;85;20102;-68
2022/05/31 13:37:52;;;;;;;;;;;;;;;25.28;51.22;99681.30;1692656;85;21231;-68
2022/05/31 13:40:24;;;;;;;;;;;;;;;25.51;50.99;99682.11;1692346;84;20119;-68